sensor_id;sensor_type;location;lat;lon;timestamp;pressure;altitude;pressure_sealevel;temperature;humidity
45467;BME280;31212;49.734;8.490;2023-03-13T00:01:36;99851.59;;;8.10;80.59
45467;BME280;31212;49.734;8.490;2023-03-13T00:04:04;99844.72;;;8.15;79.89
45467;BME280;31212;49.734;8.490;2023-03-13T00:06:32;99837.81;;;8.16;80.54
45467;BME280;31212;49.734;8.490;2023-03-13T00:09:01;99836.16;;;8.30;80.03
45467;BME280;31212;49.734;8.490;2023-03-13T00:11:29;99824.94;;;8.23;80.33
45467;BME280;31212;49.734;8.490;2023-03-13T00:13:57;99821.47;;;8.21;80.09
45467;BME280;31212;49.734;8.490;2023-03-13T00:16:23;99823.19;;;8.24;80.36
45467;BME280;31212;49.734;8.490;2023-03-13T00:18:51;99817.19;;;8.30;79.85
45467;BME280;31212;49.734;8.490;2023-03-13T00:21:20;99808.56;;;8.31;79.60
45467;BME280;31212;49.734;8.490;2023-03-13T00:23:48;99801.69;;;8.33;79.90
45467;BME280;31212;49.734;8.490;2023-03-13T00:26:17;99793.94;;;8.33;79.95
45467;BME280;31212;49.734;8.490;2023-03-13T00:28:45;99793.91;;;8.27;79.99
45467;BME280;31212;49.734;8.490;2023-03-13T00:31:13;99779.22;;;8.29;79.74
45467;BME280;31212;49.734;8.490;2023-03-13T00:33:41;99780.13;;;8.34;79.70
45467;BME280;31212;49.734;8.490;2023-03-13T00:36:10;99764.59;;;8.35;79.75
45467;BME280;31212;49.734;8.490;2023-03-13T00:38:37;99752.53;;;8.40;79.28
45467;BME280;31212;49.734;8.490;2023-03-13T00:41:05;99747.38;;;8.34;79.73
45467;BME280;31212;49.734;8.490;2023-03-13T00:43:34;99750.81;;;8.35;79.51
45467;BME280;31212;49.734;8.490;2023-03-13T00:46:01;99737.88;;;8.35;79.17
45467;BME280;31212;49.734;8.490;2023-03-13T00:48:28;99741.34;;;8.38;79.50
45467;BME280;31212;49.734;8.490;2023-03-13T00:50:54;99734.44;;;8.36;79.35
45467;BME280;31212;49.734;8.490;2023-03-13T00:53:21;99735.31;;;8.33;79.82
45467;BME280;31212;49.734;8.490;2023-03-13T00:55:53;99743.06;;;8.33;79.55
45467;BME280;31212;49.734;8.490;2023-03-13T00:58:20;99736.19;;;8.37;79.52
45467;BME280;31212;49.734;8.490;2023-03-13T01:00:49;99729.28;;;8.36;79.73
45467;BME280;31212;49.734;8.490;2023-03-13T01:03:15;99727.59;;;8.50;79.56
45467;BME280;31212;49.734;8.490;2023-03-13T01:05:42;99722.41;;;8.47;79.71
45467;BME280;31212;49.734;8.490;2023-03-13T01:08:08;99717.25;;;8.53;79.34
45467;BME280;31212;49.734;8.490;2023-03-13T01:10:35;99700.84;;;8.53;79.04
45467;BME280;31212;49.734;8.490;2023-03-13T01:13:01;99698.25;;;8.50;79.23
45467;BME280;31212;49.734;8.490;2023-03-13T01:15:29;99693.94;;;8.58;79.37
45467;BME280;31212;49.734;8.490;2023-03-13T01:17:57;99689.63;;;8.55;79.16
45467;BME280;31212;49.734;8.490;2023-03-13T01:20:24;99676.69;;;8.54;79.08
45467;BME280;31212;49.734;8.490;2023-03-13T01:22:50;99683.59;;;8.58;79.17
45467;BME280;31212;49.734;8.490;2023-03-13T01:25:17;99680.16;;;8.61;78.78
45467;BME280;31212;49.734;8.490;2023-03-13T01:27:44;99668.94;;;8.71;78.79
45467;BME280;31212;49.734;8.490;2023-03-13T01:30:11;99661.19;;;8.79;78.52
45467;BME280;31212;49.734;8.490;2023-03-13T01:32:37;99639.59;;;8.80;78.14
45467;BME280;31212;49.734;8.490;2023-03-13T01:35:06;99617.16;;;8.83;78.09
45467;BME280;31212;49.734;8.490;2023-03-13T01:37:32;99600.75;;;8.84;77.91
45467;BME280;31212;49.734;8.490;2023-03-13T01:39:59;99585.19;;;8.92;77.80
45467;BME280;31212;49.734;8.490;2023-03-13T01:42:25;99580.03;;;8.89;77.62
45467;BME280;31212;49.734;8.490;2023-03-13T01:44:53;99566.19;;;8.95;77.34
45467;BME280;31212;49.734;8.490;2023-03-13T01:47:21;99561.91;;;8.90;77.37
45467;BME280;31212;49.734;8.490;2023-03-13T01:50:08;99550.66;;;9.01;77.07
45467;BME280;31212;49.734;8.490;2023-03-13T01:53:01;99543.78;;;8.94;77.23
45467;BME280;31212;49.734;8.490;2023-03-13T01:55:29;99542.03;;;9.00;77.02
45467;BME280;31212;49.734;8.490;2023-03-13T01:57:56;99529.91;;;9.04;76.88
45467;BME280;31212;49.734;8.490;2023-03-13T02:00:24;99545.50;;;8.95;77.46
45467;BME280;31212;49.734;8.490;2023-03-13T02:02:54;99578.34;;;8.82;78.61
45467;BME280;31212;49.734;8.490;2023-03-13T02:05:25;99618.06;;;8.65;79.55
45467;BME280;31212;49.734;8.490;2023-03-13T02:07:55;99644.81;;;8.53;80.50
45467;BME280;31212;49.734;8.490;2023-03-13T02:10:24;99659.44;;;8.37;81.67
45467;BME280;31212;49.734;8.490;2023-03-13T02:12:54;99685.28;;;8.25;82.15
45467;BME280;31212;49.734;8.490;2023-03-13T02:15:23;99698.22;;;8.22;83.02
45467;BME280;31212;49.734;8.490;2023-03-13T02:17:52;99705.13;;;8.17;83.69
45467;BME280;31212;49.734;8.490;2023-03-13T02:20:20;99701.66;;;8.18;83.79
45467;BME280;31212;49.734;8.490;2023-03-13T02:22:52;99699.94;;;8.18;84.57
45467;BME280;31212;49.734;8.490;2023-03-13T02:25:36;99684.44;;;8.34;83.83
45467;BME280;31212;49.734;8.490;2023-03-13T02:28:10;99663.75;;;8.41;83.78
45467;BME280;31212;49.734;8.490;2023-03-13T02:30:41;99647.41;;;8.53;83.38
45467;BME280;31212;49.734;8.490;2023-03-13T02:33:08;99643.94;;;8.54;83.06
45467;BME280;31212;49.734;8.490;2023-03-13T02:35:36;99629.28;;;8.63;82.53
45467;BME280;31212;49.734;8.490;2023-03-13T02:38:10;99625.81;;;8.67;82.21
45467;BME280;31212;49.734;8.490;2023-03-13T02:40:41;99619.75;;;8.77;81.94
45467;BME280;31212;49.734;8.490;2023-03-13T02:43:13;99611.97;;;8.75;82.21
45467;BME280;31212;49.734;8.490;2023-03-13T02:45:41;99622.38;;;8.69;82.23
45467;BME280;31212;49.734;8.490;2023-03-13T02:48:09;99630.13;;;8.66;82.94
45467;BME280;31212;49.734;8.490;2023-03-13T02:50:36;99631.84;;;8.67;83.02
45467;BME280;31212;49.734;8.490;2023-03-13T02:53:05;99635.31;;;8.62;83.69
45467;BME280;31212;49.734;8.490;2023-03-13T02:55:36;99629.25;;;8.69;83.54
45467;BME280;31212;49.734;8.490;2023-03-13T02:58:06;99616.31;;;8.73;82.98
45467;BME280;31212;49.734;8.490;2023-03-13T03:00:35;99600.75;;;8.80;83.22
45467;BME280;31212;49.734;8.490;2023-03-13T03:03:01;99595.56;;;8.89;83.16
45467;BME280;31212;49.734;8.490;2023-03-13T03:05:28;99594.69;;;8.85;83.08
45467;BME280;31212;49.734;8.490;2023-03-13T03:07:55;99580.91;;;8.91;83.11
45467;BME280;31212;49.734;8.490;2023-03-13T03:10:27;99574.84;;;8.97;82.75
45467;BME280;31212;49.734;8.490;2023-03-13T03:12:54;99551.50;;;9.04;82.27
45467;BME280;31212;49.734;8.490;2023-03-13T03:15:21;99540.25;;;9.12;81.59
45467;BME280;31212;49.734;8.490;2023-03-13T03:17:48;99528.13;;;9.17;81.20
45467;BME280;31212;49.734;8.490;2023-03-13T03:20:15;99510.84;;;9.19;81.47
45467;BME280;31212;49.734;8.490;2023-03-13T03:22:42;99505.69;;;9.22;81.03
45467;BME280;31212;49.734;8.490;2023-03-13T03:25:09;99503.91;;;9.24;80.94
45467;BME280;31212;49.734;8.490;2023-03-13T03:27:35;99488.31;;;9.33;80.55
45467;BME280;31212;49.734;8.490;2023-03-13T03:30:06;99483.97;;;9.40;80.20
45467;BME280;31212;49.734;8.490;2023-03-13T03:32:35;99487.38;;;9.45;79.79
45467;BME280;31212;49.734;8.490;2023-03-13T03:35:02;99479.56;;;9.50;79.50
45467;BME280;31212;49.734;8.490;2023-03-13T03:37:29;99490.78;;;9.49;80.35
45467;BME280;31212;49.734;8.490;2023-03-13T03:39:57;99500.31;;;9.47;80.50
45467;BME280;31212;49.734;8.490;2023-03-13T03:42:23;99512.34;;;9.54;80.22
45467;BME280;31212;49.734;8.490;2023-03-13T03:44:50;99514.09;;;9.55;80.23
45467;BME280;31212;49.734;8.490;2023-03-13T03:47:17;99536.56;;;9.48;81.37
45467;BME280;31212;49.734;8.490;2023-03-13T03:49:47;99568.50;;;9.55;81.96
45467;BME280;31212;49.734;8.490;2023-03-13T03:52:14;99584.91;;;9.57;82.88
45467;BME280;31212;49.734;8.490;2023-03-13T03:54:42;99621.19;;;9.54;84.87
45467;BME280;31212;49.734;8.490;2023-03-13T03:57:09;99628.09;;;9.55;85.58
45467;BME280;31212;49.734;8.490;2023-03-13T03:59:37;99657.47;;;9.51;86.76
45467;BME280;31212;49.734;8.490;2023-03-13T04:02:08;99648.88;;;9.46;87.77
45467;BME280;31212;49.734;8.490;2023-03-13T04:04:35;99656.66;;;9.41;88.61
45467;BME280;31212;49.734;8.490;2023-03-13T04:07:07;99639.41;;;9.40;89.23
45467;BME280;31212;49.734;8.490;2023-03-13T04:09:34;99639.41;;;9.38;89.95
45467;BME280;31212;49.734;8.490;2023-03-13T04:12:02;99640.25;;;9.37;90.51
45467;BME280;31212;49.734;8.490;2023-03-13T04:14:33;99640.25;;;9.37;91.24
45467;BME280;31212;49.734;8.490;2023-03-13T04:17:03;99635.94;;;9.42;91.42
45467;BME280;31212;49.734;8.490;2023-03-13T04:19:29;99620.41;;;9.41;92.04
45467;BME280;31212;49.734;8.490;2023-03-13T04:21:57;99638.53;;;9.42;92.19
45467;BME280;31212;49.734;8.490;2023-03-13T04:24:24;99621.25;;;9.46;92.56
45467;BME280;31212;49.734;8.490;2023-03-13T04:26:51;99627.25;;;9.50;92.75
45467;BME280;31212;49.734;8.490;2023-03-13T04:29:17;99625.50;;;9.53;93.13
45467;BME280;31212;49.734;8.490;2023-03-13T04:32:07;99627.25;;;9.51;93.51
45467;BME280;31212;49.734;8.490;2023-03-13T04:34:41;99625.53;;;9.52;93.80
45467;BME280;31212;49.734;8.490;2023-03-13T04:37:18;99627.25;;;9.51;93.58
45467;BME280;31212;49.734;8.490;2023-03-13T04:39:56;99602.22;;;9.52;94.09
45467;BME280;31212;49.734;8.490;2023-03-13T04:42:38;99617.75;;;9.49;94.05
45467;BME280;31212;49.734;8.490;2023-03-13T04:45:05;99614.28;;;9.51;94.50
45467;BME280;31212;49.734;8.490;2023-03-13T04:47:38;99622.06;;;9.53;94.23
45467;BME280;31212;49.734;8.490;2023-03-13T04:50:25;99623.78;;;9.51;94.48
45467;BME280;31212;49.734;8.490;2023-03-13T04:53:10;99618.59;;;9.54;94.70
45467;BME280;31212;49.734;8.490;2023-03-13T04:55:49;99611.69;;;9.50;95.51
45467;BME280;31212;49.734;8.490;2023-03-13T04:58:32;99608.25;;;9.52;95.19
45467;BME280;31212;49.734;8.490;2023-03-13T05:01:06;99619.44;;;9.57;95.89
45467;BME280;31212;49.734;8.490;2023-03-13T05:03:50;99623.78;;;9.54;95.37
45467;BME280;31212;49.734;8.490;2023-03-13T05:06:29;99625.53;;;9.52;96.01
45467;BME280;31212;49.734;8.490;2023-03-13T05:09:14;99608.25;;;9.49;95.91
45467;BME280;31212;49.734;8.490;2023-03-13T05:12:01;99617.75;;;9.50;96.13
45467;BME280;31212;49.734;8.490;2023-03-13T05:14:51;99618.59;;;9.54;96.71
45467;BME280;31212;49.734;8.490;2023-03-13T05:17:36;99611.69;;;9.51;96.40
45467;BME280;31212;49.734;8.490;2023-03-13T05:20:19;99590.94;;;9.57;97.03
45467;BME280;31212;49.734;8.490;2023-03-13T05:22:56;99581.41;;;9.58;97.11
45467;BME280;31212;49.734;8.490;2023-03-13T05:25:35;99589.19;;;9.63;97.67
45467;BME280;31212;49.734;8.490;2023-03-13T05:28:17;99596.00;;;9.73;97.63
45467;BME280;31212;49.734;8.490;2023-03-13T05:30:55;99593.38;;;9.81;97.32
45467;BME280;31212;49.734;8.490;2023-03-13T05:34:00;99577.81;;;9.85;98.03
45467;BME280;31212;49.734;8.490;2023-03-13T05:36:40;99589.00;;;9.92;97.45
45467;BME280;31212;49.734;8.490;2023-03-13T05:39:06;99591.50;;;10.00;97.29
45467;BME280;31212;49.734;8.490;2023-03-13T05:41:49;99565.53;;;10.07;97.03
45467;BME280;31212;49.734;8.490;2023-03-13T05:44:26;99555.94;;;10.16;96.62
45467;BME280;31212;49.734;8.490;2023-03-13T05:47:12;99553.31;;;10.19;97.00
45467;BME280;31212;49.734;8.490;2023-03-13T05:49:38;99559.38;;;10.19;96.31
45467;BME280;31212;49.734;8.490;2023-03-13T05:52:12;99561.03;;;10.26;96.44
45467;BME280;31212;49.734;8.490;2023-03-13T05:54:41;99568.75;;;10.33;96.14
45467;BME280;31212;49.734;8.490;2023-03-13T05:57:22;99563.53;;;10.42;95.43
45467;BME280;31212;49.734;8.490;2023-03-13T06:00:04;99557.44;;;10.43;95.80
45467;BME280;31212;49.734;8.490;2023-03-13T06:02:48;99536.56;;;10.54;94.58
45467;BME280;31212;49.734;8.490;2023-03-13T06:05:21;99542.63;;;10.54;94.12
45467;BME280;31212;49.734;8.490;2023-03-13T06:07:48;99533.13;;;10.53;94.87
45467;BME280;31212;49.734;8.490;2023-03-13T06:10:15;99536.56;;;10.57;94.26
45467;BME280;31212;49.734;8.490;2023-03-13T06:12:41;99540.84;;;10.61;94.38
45467;BME280;31212;49.734;8.490;2023-03-13T06:15:12;99536.44;;;10.68;94.09
45467;BME280;31212;49.734;8.490;2023-03-13T06:17:58;99543.31;;;10.72;94.46
45467;BME280;31212;49.734;8.490;2023-03-13T06:20:24;99542.31;;;10.81;93.63
45467;BME280;31212;49.734;8.490;2023-03-13T06:22:51;99531.94;;;10.81;93.21
45467;BME280;31212;49.734;8.490;2023-03-13T06:25:17;99524.94;;;10.87;93.30
45467;BME280;31212;49.734;8.490;2023-03-13T06:27:44;99505.00;;;10.89;93.07
45467;BME280;31212;49.734;8.490;2023-03-13T06:30:13;99506.72;;;10.89;92.48
45467;BME280;31212;49.734;8.490;2023-03-13T06:32:39;99510.13;;;10.96;91.82
45467;BME280;31212;49.734;8.490;2023-03-13T06:35:06;99503.19;;;10.98;91.99
45467;BME280;31212;49.734;8.490;2023-03-13T06:37:33;99501.41;;;11.00;92.30
45467;BME280;31212;49.734;8.490;2023-03-13T06:39:59;99495.41;;;10.96;91.91
45467;BME280;31212;49.734;8.490;2023-03-13T06:42:26;99498.03;;;10.94;92.76
45467;BME280;31212;49.734;8.490;2023-03-13T06:44:52;99493.78;;;10.87;92.55
45467;BME280;31212;49.734;8.490;2023-03-13T06:47:20;99495.44;;;10.94;92.58
45467;BME280;31212;49.734;8.490;2023-03-13T06:49:47;99491.75;;;11.08;92.23
45467;BME280;31212;49.734;8.490;2023-03-13T06:52:14;99489.16;;;11.11;91.43
45467;BME280;31212;49.734;8.490;2023-03-13T06:54:41;99489.00;;;11.19;91.52
45467;BME280;31212;49.734;8.490;2023-03-13T06:57:07;99482.00;;;11.25;91.64
45467;BME280;31212;49.734;8.490;2023-03-13T06:59:34;99485.50;;;11.24;91.17
45467;BME280;31212;49.734;8.490;2023-03-13T07:02:00;99471.56;;;11.30;90.92
45467;BME280;31212;49.734;8.490;2023-03-13T07:04:28;99466.41;;;11.25;91.11
45467;BME280;31212;49.734;8.490;2023-03-13T07:06:55;99468.06;;;11.33;91.22
45467;BME280;31212;49.734;8.490;2023-03-13T07:09:21;99461.03;;;11.38;91.06
45467;BME280;31212;49.734;8.490;2023-03-13T07:11:48;99461.00;;;11.41;90.10
45467;BME280;31212;49.734;8.490;2023-03-13T07:14:14;99464.28;;;11.51;89.94
45467;BME280;31212;49.734;8.490;2023-03-13T07:16:41;99464.31;;;11.49;90.51
45467;BME280;31212;49.734;8.490;2023-03-13T07:19:07;99472.97;;;11.51;89.39
45467;BME280;31212;49.734;8.490;2023-03-13T07:21:35;99459.00;;;11.57;89.56
45467;BME280;31212;49.734;8.490;2023-03-13T07:24:02;99463.38;;;11.55;90.07
45467;BME280;31212;49.734;8.490;2023-03-13T07:26:29;99470.19;;;11.60;89.38
45467;BME280;31212;49.734;8.490;2023-03-13T07:28:55;99470.13;;;11.65;89.60
45467;BME280;31212;49.734;8.490;2023-03-13T07:31:22;99471.84;;;11.65;89.51
45467;BME280;31212;49.734;8.490;2023-03-13T07:33:49;99473.66;;;11.63;89.28
45467;BME280;31212;49.734;8.490;2023-03-13T07:36:16;99473.69;;;11.58;89.07
45467;BME280;31212;49.734;8.490;2023-03-13T07:38:47;99490.16;;;11.60;89.11
45467;BME280;31212;49.734;8.490;2023-03-13T07:41:13;99490.88;;;11.68;89.34
45467;BME280;31212;49.734;8.490;2023-03-13T07:43:40;99479.59;;;11.69;89.40
45467;BME280;31212;49.734;8.490;2023-03-13T07:46:08;99475.25;;;11.70;89.14
45467;BME280;31212;49.734;8.490;2023-03-13T07:48:37;99465.28;;;11.97;88.13
45467;BME280;31212;49.734;8.490;2023-03-13T07:51:06;99444.97;;;12.19;87.11
45467;BME280;31212;49.734;8.490;2023-03-13T07:53:33;99422.88;;;12.38;86.56
45467;BME280;31212;49.734;8.490;2023-03-13T07:56:03;99400.09;;;12.48;85.11
45467;BME280;31212;49.734;8.490;2023-03-13T07:58:32;99393.94;;;12.54;84.50
45467;BME280;31212;49.734;8.490;2023-03-13T08:00:59;99393.91;;;12.55;84.20
45467;BME280;31212;49.734;8.490;2023-03-13T08:03:26;99392.88;;;12.62;83.85
45467;BME280;31212;49.734;8.490;2023-03-13T08:05:58;99376.31;;;12.65;83.36
45467;BME280;31212;49.734;8.490;2023-03-13T08:08:25;99356.09;;;12.76;82.96
45467;BME280;31212;49.734;8.490;2023-03-13T08:10:51;99329.75;;;12.89;82.88
45467;BME280;31212;49.734;8.490;2023-03-13T08:13:19;99336.44;;;13.01;82.05
45467;BME280;31212;49.734;8.490;2023-03-13T08:15:45;99335.38;;;13.09;81.98
45467;BME280;31212;49.734;8.490;2023-03-13T08:18:12;99337.22;;;13.04;81.50
45467;BME280;31212;49.734;8.490;2023-03-13T08:20:38;99345.03;;;13.04;81.42
45467;BME280;31212;49.734;8.490;2023-03-13T08:23:05;99346.00;;;13.00;81.23
45467;BME280;31212;49.734;8.490;2023-03-13T08:25:31;99351.25;;;12.99;81.29
45467;BME280;31212;49.734;8.490;2023-03-13T08:27:58;99361.47;;;13.06;81.52
45467;BME280;31212;49.734;8.490;2023-03-13T08:30:26;99351.03;;;13.08;81.08
45467;BME280;31212;49.734;8.490;2023-03-13T08:32:52;99345.09;;;13.03;80.99
45467;BME280;31212;49.734;8.490;2023-03-13T08:35:19;99355.47;;;13.04;81.24
45467;BME280;31212;49.734;8.490;2023-03-13T08:37:45;99350.84;;;13.16;81.07
45467;BME280;31212;49.734;8.490;2023-03-13T08:40:12;99334.22;;;13.20;80.54
45467;BME280;31212;49.734;8.490;2023-03-13T08:42:39;99328.13;;;13.21;80.46
45467;BME280;31212;49.734;8.490;2023-03-13T08:45:06;99322.78;;;13.27;80.37
45467;BME280;31212;49.734;8.490;2023-03-13T08:47:34;99313.19;;;13.27;79.93
45467;BME280;31212;49.734;8.490;2023-03-13T08:50:02;99320.88;;;13.34;79.94
45467;BME280;31212;49.734;8.490;2023-03-13T08:52:28;99307.88;;;13.32;79.93
45467;BME280;31212;49.734;8.490;2023-03-13T08:54:55;99310.53;;;13.29;79.41
45467;BME280;31212;49.734;8.490;2023-03-13T08:57:21;99321.84;;;13.29;79.56
45467;BME280;31212;49.734;8.490;2023-03-13T08:59:48;99319.25;;;13.29;79.64
45467;BME280;31212;49.734;8.490;2023-03-13T09:02:15;99325.94;;;13.40;79.62
45467;BME280;31212;49.734;8.490;2023-03-13T09:04:46;99320.53;;;13.48;79.06
45467;BME280;31212;49.734;8.490;2023-03-13T09:07:13;99319.78;;;13.42;79.27
45467;BME280;31212;49.734;8.490;2023-03-13T09:09:40;99326.13;;;13.30;79.35
45467;BME280;31212;49.734;8.490;2023-03-13T09:12:07;99332.50;;;13.20;79.64
45467;BME280;31212;49.734;8.490;2023-03-13T09:14:33;99342.13;;;13.17;79.99
45467;BME280;31212;49.734;8.490;2023-03-13T09:17:00;99357.16;;;13.07;80.21
45467;BME280;31212;49.734;8.490;2023-03-13T09:19:28;99358.78;;;13.11;80.37
45467;BME280;31212;49.734;8.490;2023-03-13T09:21:55;99364.00;;;13.11;80.75
45467;BME280;31212;49.734;8.490;2023-03-13T09:24:22;99360.53;;;13.10;80.71
45467;BME280;31212;49.734;8.490;2023-03-13T09:26:48;99356.41;;;13.02;80.45
45467;BME280;31212;49.734;8.490;2023-03-13T09:29:15;99347.50;;;13.10;80.54
45467;BME280;31212;49.734;8.490;2023-03-13T09:31:42;99335.09;;;13.20;80.26
45467;BME280;31212;49.734;8.490;2023-03-13T09:34:08;99315.41;;;13.44;79.82
45467;BME280;31212;49.734;8.490;2023-03-13T09:36:35;99268.28;;;13.51;78.69
45467;BME280;31212;49.734;8.490;2023-03-13T09:39:02;99254.91;;;13.65;78.49
45467;BME280;31212;49.734;8.490;2023-03-13T09:41:33;99225.03;;;13.75;77.67
45467;BME280;31212;49.734;8.490;2023-03-13T09:44:05;99210.19;;;13.77;77.33
45467;BME280;31212;49.734;8.490;2023-03-13T09:46:38;99203.88;;;13.84;77.00
45467;BME280;31212;49.734;8.490;2023-03-13T09:49:13;99177.91;;;13.81;77.02
45467;BME280;31212;49.734;8.490;2023-03-13T09:51:43;99170.75;;;13.88;76.82
45467;BME280;31212;49.734;8.490;2023-03-13T09:54:21;99149.88;;;14.16;76.11
45467;BME280;31212;49.734;8.490;2023-03-13T09:56:51;99111.50;;;14.45;75.12
45467;BME280;31212;49.734;8.490;2023-03-13T09:59:23;99093.84;;;14.78;74.26
45467;BME280;31212;49.734;8.490;2023-03-13T10:01:54;99012.72;;;15.73;72.09
45467;BME280;31212;49.734;8.490;2023-03-13T10:04:33;98925.91;;;16.06;69.71
45467;BME280;31212;49.734;8.490;2023-03-13T10:07:03;98894.78;;;16.19;68.66
45467;BME280;31212;49.734;8.490;2023-03-13T10:09:32;98871.09;;;16.41;68.29
45467;BME280;31212;49.734;8.490;2023-03-13T10:12:11;98876.34;;;16.22;67.87
45467;BME280;31212;49.734;8.490;2023-03-13T10:14:43;98897.06;;;15.87;68.82
45467;BME280;31212;49.734;8.490;2023-03-13T10:17:21;98940.53;;;15.47;69.97
45467;BME280;31212;49.734;8.490;2023-03-13T10:19:56;98991.38;;;15.40;71.09
45467;BME280;31212;49.734;8.490;2023-03-13T10:22:25;98994.91;;;15.39;71.24
45467;BME280;31212;49.734;8.490;2023-03-13T10:24:58;99020.44;;;15.32;71.66
45467;BME280;31212;49.734;8.490;2023-03-13T10:27:26;99020.94;;;14.96;71.67
45467;BME280;31212;49.734;8.490;2023-03-13T10:29:52;99050.56;;;14.71;72.51
45467;BME280;31212;49.734;8.490;2023-03-13T10:32:20;99083.31;;;14.55;73.50
45467;BME280;31212;49.734;8.490;2023-03-13T10:34:53;99087.09;;;14.73;73.65
45467;BME280;31212;49.734;8.490;2023-03-13T10:37:23;99066.31;;;14.93;72.56
45467;BME280;31212;49.734;8.490;2023-03-13T10:39:50;99044.19;;;15.26;72.13
45467;BME280;31212;49.734;8.490;2023-03-13T10:42:21;99003.03;;;15.53;71.10
45467;BME280;31212;49.734;8.490;2023-03-13T10:44:55;98977.13;;;15.91;70.12
45467;BME280;31212;49.734;8.490;2023-03-13T10:47:21;98930.16;;;16.09;69.34
45467;BME280;31212;49.734;8.490;2023-03-13T10:49:49;98887.47;;;16.65;68.06
45467;BME280;31212;49.734;8.490;2023-03-13T10:52:32;98735.81;;;18.76;63.36
45467;BME280;31212;49.734;8.490;2023-03-13T10:55:01;98592.75;;;19.09;60.61
45467;BME280;31212;49.734;8.490;2023-03-13T10:57:30;98597.75;;;18.24;61.17
45467;BME280;31212;49.734;8.490;2023-03-13T10:59:57;98629.69;;;18.16;61.83
45467;BME280;31212;49.734;8.490;2023-03-13T11:02:27;98661.66;;;17.93;62.48
45467;BME280;31212;49.734;8.490;2023-03-13T11:04:54;98616.34;;;18.66;60.91
45467;BME280;31212;49.734;8.490;2023-03-13T11:07:26;98535.91;;;19.36;59.12
45467;BME280;31212;49.734;8.490;2023-03-13T11:09:58;98519.41;;;18.61;59.37
45467;BME280;31212;49.734;8.490;2023-03-13T11:12:26;98599.25;;;17.98;61.07
45467;BME280;31212;49.734;8.490;2023-03-13T11:14:57;98647.75;;;17.59;62.24
45467;BME280;31212;49.734;8.490;2023-03-13T11:17:29;98715.78;;;17.28;63.45
45467;BME280;31212;49.734;8.490;2023-03-13T11:20:04;98741.25;;;16.91;64.70
45467;BME280;31212;49.734;8.490;2023-03-13T11:22:46;98767.00;;;17.01;64.83
45467;BME280;31212;49.734;8.490;2023-03-13T11:25:21;98761.19;;;16.76;65.05
45467;BME280;31212;49.734;8.490;2023-03-13T11:28:03;98776.81;;;16.41;65.78
45467;BME280;31212;49.734;8.490;2023-03-13T11:30:48;98816.50;;;16.51;66.45
45467;BME280;31212;49.734;8.490;2023-03-13T11:33:27;98801.56;;;16.53;66.22
45467;BME280;31212;49.734;8.490;2023-03-13T11:36:00;98775.09;;;16.59;65.53
45467;BME280;31212;49.734;8.490;2023-03-13T11:38:32;98757.91;;;16.90;65.10
45467;BME280;31212;49.734;8.490;2023-03-13T11:41:08;98701.91;;;17.26;63.81
45467;BME280;31212;49.734;8.490;2023-03-13T11:43:47;98677.53;;;17.74;63.30
45467;BME280;31212;49.734;8.490;2023-03-13T11:46:25;98607.03;;;18.30;61.93
45467;BME280;31212;49.734;8.490;2023-03-13T11:49:12;98555.38;;;18.45;60.83
45467;BME280;31212;49.734;8.490;2023-03-13T11:51:52;98548.22;;;18.32;60.91
45467;BME280;31212;49.734;8.490;2023-03-13T11:54:38;98551.63;;;18.04;61.29
45467;BME280;31212;49.734;8.490;2023-03-13T11:57:12;98545.31;;;17.76;61.67
45467;BME280;31212;49.734;8.490;2023-03-13T11:59:46;98581.34;;;17.57;62.31
45467;BME280;31212;49.734;8.490;2023-03-13T12:02:20;98585.00;;;17.70;62.17
45467;BME280;31212;49.734;8.490;2023-03-13T12:04:53;98568.59;;;17.35;62.45
45467;BME280;31212;49.734;8.490;2023-03-13T12:07:25;98594.69;;;17.20;62.82
45467;BME280;31212;49.734;8.490;2023-03-13T12:09:56;98624.91;;;16.94;63.74
45467;BME280;31212;49.734;8.490;2023-03-13T12:12:32;98667.22;;;16.69;64.48
45467;BME280;31212;49.734;8.490;2023-03-13T12:15:14;98678.22;;;16.58;64.97
45467;BME280;31212;49.734;8.490;2023-03-13T12:17:46;98704.19;;;16.80;65.15
45467;BME280;31212;49.734;8.490;2023-03-13T12:20:19;98672.84;;;16.96;64.86
45467;BME280;31212;49.734;8.490;2023-03-13T12:22:51;98654.72;;;17.09;64.66
45467;BME280;31212;49.734;8.490;2023-03-13T12:25:23;98613.72;;;17.08;64.16
45467;BME280;31212;49.734;8.490;2023-03-13T12:27:52;98621.09;;;17.17;64.41
45467;BME280;31212;49.734;8.490;2023-03-13T12:30:26;98589.28;;;17.07;64.07
45467;BME280;31212;49.734;8.490;2023-03-13T12:33:01;98608.41;;;17.25;63.95
45467;BME280;31212;49.734;8.490;2023-03-13T12:35:31;98573.66;;;17.54;63.54
45467;BME280;31212;49.734;8.490;2023-03-13T12:38:04;98516.09;;;17.66;62.39
45467;BME280;31212;49.734;8.490;2023-03-13T12:40:38;98536.81;;;17.87;62.36
45467;BME280;31212;49.734;8.490;2023-03-13T12:43:11;98504.06;;;17.78;62.25
45467;BME280;31212;49.734;8.490;2023-03-13T12:45:52;98520.78;;;17.45;63.22
45467;BME280;31212;49.734;8.490;2023-03-13T12:48:40;98563.84;;;17.25;63.76
45467;BME280;31212;49.734;8.490;2023-03-13T12:51:21;98594.66;;;17.04;64.52
45467;BME280;31212;49.734;8.490;2023-03-13T12:54:09;98604.22;;;17.05;64.80
45467;BME280;31212;49.734;8.490;2023-03-13T12:56:46;98591.25;;;17.20;64.69
45467;BME280;31212;49.734;8.490;2023-03-13T12:59:22;98527.53;;;17.34;63.43
45467;BME280;31212;49.734;8.490;2023-03-13T13:01:53;98439.56;;;17.44;61.97
45467;BME280;31212;49.734;8.490;2023-03-13T13:04:22;98385.56;;;17.70;60.87
45467;BME280;31212;49.734;8.490;2023-03-13T13:06:55;98345.16;;;17.73;60.57
45467;BME280;31212;49.734;8.490;2023-03-13T13:09:26;98329.88;;;17.65;60.43
45467;BME280;31212;49.734;8.490;2023-03-13T13:11:55;98292.28;;;17.50;59.97
45467;BME280;31212;49.734;8.490;2023-03-13T13:15:01;98320.28;;;17.49;60.44
45467;BME280;31212;49.734;8.490;2023-03-13T13:17:53;98301.38;;;17.59;59.96
45467;BME280;31212;49.734;8.490;2023-03-13T13:20:28;98306.72;;;17.72;59.96
45467;BME280;31212;49.734;8.490;2023-03-13T13:22:56;98308.66;;;17.98;59.92
45467;BME280;31212;49.734;8.490;2023-03-13T13:25:29;98235.38;;;18.23;58.80